Geraldton, Canada
Current Conditions -  °F | °C
As of 8:00 PM on Friday 24 Oct 2014 (Local Time) from CYGQ Reporting Station
Haze Haze  
Wind Chill: 41°   Ceiling: 900
Heat Index: 46°   Visibility: 6mi
Dew Point: 45°   Wind: 12mph
Humidity: 93%   Direction: 200°SSW
Pressure: 29.63"   Gusts: 18mph
Location:  49.72°N, 86.95°W
Report Text: CYGQ 250000Z 20010G16KT 6SM BR OVC009 08/07 A2963 RMK SF8 CIGRAG SLP046
Loading
Personal Weather Stations






























Interactive Weather Map
Tropical Storm Tracking
New forecast layout! Learn more

10-Day Weather Forecast

Advertisements
Track Severe Weather on mobile